createdAt,value
2018-09-24T00:00:07.863Z,97.71
2018-09-24T00:02:37.241Z,93.73
2018-09-24T00:05:06.329Z,94.17
2018-09-24T00:07:35.752Z,96.52
2018-09-24T00:10:04.893Z,92.04
2018-09-24T00:12:33.942Z,95.22
2018-09-24T00:15:03.023Z,94.99
2018-09-24T00:17:32.067Z,94.50
2018-09-24T00:20:01.130Z,90.54
2018-09-24T00:22:31.261Z,87.39
2018-09-24T00:25:00.276Z,86.33
2018-09-24T00:27:29.528Z,87.41
2018-09-24T00:29:58.647Z,90.07
2018-09-24T00:32:27.699Z,94.17
2018-09-24T00:34:56.759Z,91.67
2018-09-24T00:37:26.167Z,94.78
2018-09-24T00:39:55.203Z,92.84
2018-09-24T00:42:24.217Z,89.75
2018-09-24T00:44:54.329Z,89.06
2018-09-24T00:47:23.417Z,92.52
2018-09-24T00:49:52.912Z,94.08
2018-09-24T00:52:21.978Z,89.00
2018-09-24T00:54:51.033Z,87.25
2018-09-24T00:57:20.066Z,86.20
2018-09-24T00:59:49.402Z,85.21
2018-09-24T01:02:18.442Z,85.28
2018-09-24T01:04:47.469Z,91.12
2018-09-24T01:07:16.560Z,94.31
2018-09-24T01:09:46.589Z,92.63
2018-09-24T01:12:15.671Z,89.65
2018-09-24T01:14:45.132Z,83.97
2018-09-24T01:17:14.153Z,81.86
2018-09-24T01:19:43.193Z,82.64
2018-09-24T01:22:12.272Z,80.94
2018-09-24T01:24:41.301Z,80.90
2018-09-24T01:27:10.313Z,82.85
2018-09-24T01:29:39.719Z,84.05
2018-09-24T01:32:08.752Z,80.37
2018-09-24T01:34:37.780Z,80.27
2018-09-24T01:37:07.361Z,78.82
2018-09-24T01:39:36.385Z,78.84
2018-09-24T01:42:05.449Z,80.09
2018-09-24T01:44:35.235Z,82.13
2018-09-24T01:47:04.276Z,83.07
2018-09-24T01:49:33.286Z,86.27
2018-09-24T01:52:02.440Z,89.77
2018-09-24T01:54:31.681Z,89.60
2018-09-24T01:57:00.738Z,86.34
2018-09-24T01:59:30.075Z,93.63
2018-09-24T02:01:59.128Z,94.84
2018-09-24T02:04:28.173Z,96.98
2018-09-24T02:07:03.444Z,95.65
2018-09-24T02:09:32.938Z,90.67
2018-09-24T02:12:06.698Z,90.04
2018-09-24T02:14:36.059Z,83.36
2018-09-24T02:17:05.162Z,81.84
2018-09-24T02:19:35.982Z,80.29
2018-09-24T02:22:05.987Z,81.22
2018-09-24T02:24:35.064Z,82.01
2018-09-24T02:27:08.362Z,81.41
2018-09-24T02:29:38.040Z,79.74
2018-09-24T02:32:07.839Z,83.22
2018-09-24T02:34:37.086Z,81.36
2018-09-24T02:37:06.323Z,81.87
2018-09-24T02:39:35.369Z,79.21
2018-09-24T02:42:04.805Z,78.68
2018-09-24T02:44:33.875Z,79.95
2018-09-24T02:47:04.352Z,79.75
2018-09-24T02:49:34.034Z,78.17
2018-09-24T02:52:05.010Z,78.39
2018-09-24T02:54:35.729Z,79.94
2018-09-24T02:57:04.791Z,79.95
2018-09-24T02:59:33.825Z,81.48
2018-09-24T03:02:02.871Z,78.96
2018-09-24T03:04:31.908Z,80.43
2018-09-24T03:07:00.927Z,86.19
2018-09-24T03:09:30.986Z,100.00
2018-09-24T03:17:45.001Z,86.17
2018-09-24T03:20:14.700Z,86.71
2018-09-24T03:22:43.726Z,86.97
2018-09-24T03:25:19.689Z,87.50
2018-09-24T03:27:48.824Z,87.25
2018-09-24T03:30:20.042Z,94.30
2018-09-24T03:32:49.907Z,89.83
2018-09-24T03:35:18.996Z,87.84
2018-09-24T03:37:47.985Z,86.36
2018-09-24T03:40:17.065Z,87.22
2018-09-24T03:42:46.093Z,87.40
2018-09-24T03:45:15.093Z,89.59
2018-09-24T03:47:44.444Z,90.40
2018-09-24T03:50:14.101Z,90.27
2018-09-24T03:52:43.288Z,90.04
2018-09-24T03:55:12.421Z,90.27
2018-09-24T03:57:41.941Z,89.40
2018-09-24T04:00:11.110Z,88.70
2018-09-24T04:02:41.988Z,87.08
2018-09-24T04:05:16.121Z,83.80
2018-09-24T04:07:50.498Z,81.04
2018-09-24T04:10:24.752Z,83.94
2018-09-24T04:12:59.366Z,83.74
2018-09-24T04:15:33.437Z,83.67
2018-09-24T04:18:07.604Z,85.72
2018-09-24T04:20:41.761Z,85.89
2018-09-24T04:23:16.065Z,85.44
2018-09-24T04:25:50.139Z,85.17
2018-09-24T04:28:24.198Z,82.03
2018-09-24T04:30:58.160Z,81.98
2018-09-24T04:33:32.557Z,85.52
2018-09-24T04:36:06.689Z,90.72
2018-09-24T04:38:40.956Z,91.99
2018-09-24T04:41:14.881Z,97.75
2018-09-24T04:43:49.041Z,97.23
2018-09-24T04:46:23.135Z,97.05
2018-09-24T04:48:57.588Z,96.78
2018-09-24T04:51:31.745Z,99.03
2018-09-24T04:54:05.814Z,98.08
2018-09-24T04:56:40.006Z,97.81
2018-09-24T04:59:14.441Z,99.09
2018-09-24T05:01:48.527Z,100.00
2018-09-24T05:04:22.787Z,100.00
2018-09-24T05:06:56.969Z,100.00
2018-09-24T05:09:31.520Z,100.00
2018-09-24T05:12:05.575Z,100.00
2018-09-24T05:14:39.525Z,100.00
2018-09-24T05:17:13.701Z,100.00
2018-09-24T05:19:48.071Z,100.00
2018-09-24T05:22:22.240Z,100.00
2018-09-24T05:24:56.320Z,100.00
2018-09-24T05:27:30.353Z,100.00
2018-09-24T05:30:05.534Z,100.00
2018-09-24T05:32:39.528Z,100.00
2018-09-24T05:35:13.707Z,100.00
2018-09-24T05:37:47.719Z,100.00
2018-09-24T05:40:22.109Z,100.00
2018-09-24T05:42:56.800Z,100.00
2018-09-24T05:45:30.829Z,100.00
2018-09-24T05:48:05.016Z,100.00
2018-09-24T05:50:39.384Z,100.00
2018-09-24T05:53:13.513Z,97.00
2018-09-24T05:55:47.728Z,99.39
2018-09-24T05:58:21.816Z,99.75
2018-09-24T06:00:56.150Z,100.00
2018-09-24T06:03:30.294Z,98.30
2018-09-24T06:06:04.322Z,96.25
2018-09-24T06:08:38.424Z,100.00
2018-09-24T06:11:12.931Z,100.00
2018-09-24T06:13:47.470Z,100.00
2018-09-24T06:16:22.066Z,100.00
2018-09-24T06:18:56.816Z,100.00
2018-09-24T06:21:31.314Z,100.00
2018-09-24T06:24:05.328Z,100.00
2018-09-24T06:26:40.307Z,100.00
2018-09-24T06:29:14.434Z,100.00
2018-09-24T06:31:48.655Z,100.00
2018-09-24T06:34:23.488Z,100.00
2018-09-24T06:36:57.620Z,100.00
2018-09-24T06:39:31.811Z,100.00
2018-09-24T06:42:06.166Z,100.00
2018-09-24T06:44:40.368Z,100.00
2018-09-24T06:47:14.595Z,96.22
2018-09-24T06:49:48.645Z,95.24
2018-09-24T06:52:23.090Z,96.70
2018-09-24T06:54:57.281Z,90.58
2018-09-24T06:57:31.772Z,96.75
2018-09-24T07:00:05.948Z,94.68
2018-09-24T07:02:40.465Z,95.14
2018-09-24T07:05:14.442Z,97.16
2018-09-24T07:07:48.667Z,96.53
2018-09-24T07:10:23.456Z,90.65
2018-09-24T07:12:57.715Z,87.47
2018-09-24T07:15:31.714Z,92.83
2018-09-24T07:18:06.650Z,92.42
2018-09-24T07:20:40.732Z,86.88
2018-09-24T07:23:15.071Z,90.64
2018-09-24T07:25:49.732Z,89.36
2018-09-24T07:28:24.303Z,88.48
2018-09-24T07:30:58.419Z,88.94
2018-09-24T07:33:32.622Z,86.02
2018-09-24T07:36:06.640Z,80.47
2018-09-24T07:38:41.157Z,81.22
2018-09-24T07:41:15.185Z,81.71
2018-09-24T07:43:49.714Z,77.34
2018-09-24T07:46:23.666Z,75.47
2018-09-24T07:48:58.245Z,77.72
2018-09-24T07:51:32.402Z,72.29
2018-09-24T07:54:06.647Z,74.00
2018-09-24T07:56:41.379Z,76.23
2018-09-24T07:59:15.666Z,73.78
2018-09-24T08:01:49.800Z,72.28
2018-09-24T08:04:24.257Z,69.70
2018-09-24T08:06:58.397Z,67.40
2018-09-24T08:09:32.785Z,67.79
2018-09-24T08:12:06.894Z,69.79
2018-09-24T08:14:40.909Z,65.92
2018-09-24T08:17:14.869Z,67.77
2018-09-24T08:19:49.245Z,66.72
2018-09-24T08:22:23.301Z,74.16
2018-09-24T08:24:57.723Z,70.78
2018-09-24T08:27:31.690Z,65.55
2018-09-24T08:30:06.296Z,69.70
2018-09-24T08:32:40.437Z,70.78
2018-09-24T08:35:14.969Z,68.89
2018-09-24T08:37:49.058Z,62.59
2018-09-24T08:40:24.014Z,63.71
2018-09-24T08:42:58.295Z,64.90
2018-09-24T08:45:32.874Z,63.95
2018-09-24T08:48:07.569Z,60.80
2018-09-24T08:50:42.824Z,59.36
2018-09-24T08:53:17.005Z,58.19
2018-09-24T08:55:51.454Z,59.16
2018-09-24T08:58:25.556Z,58.03
2018-09-24T09:01:00.079Z,56.94
2018-09-24T09:03:34.278Z,56.91
2018-09-24T09:06:08.854Z,59.03
2018-09-24T09:08:42.980Z,60.82
2018-09-24T09:11:17.042Z,55.41
2018-09-24T09:13:51.255Z,59.90
2018-09-24T09:16:25.513Z,59.84
2018-09-24T09:18:59.611Z,58.47
2018-09-24T09:21:34.145Z,57.97
2018-09-24T09:24:08.395Z,61.00
2018-09-24T09:26:42.495Z,59.37
2018-09-24T09:29:16.690Z,57.65
2018-09-24T09:31:51.198Z,56.99
2018-09-24T09:34:25.592Z,58.90
2018-09-24T09:37:00.152Z,57.52
2018-09-24T09:39:34.280Z,57.46
2018-09-24T09:42:08.782Z,55.86
2018-09-24T09:44:43.258Z,56.34
2018-09-24T09:47:18.255Z,56.49
2018-09-24T09:49:52.408Z,54.85
2018-09-24T09:52:26.569Z,56.76
2018-09-24T09:55:00.735Z,56.44
2018-09-24T09:57:35.211Z,54.37
2018-09-24T10:00:09.355Z,53.81
2018-09-24T10:02:44.002Z,51.09
2018-09-24T10:05:19.145Z,51.62
2018-09-24T10:07:53.321Z,52.09
2018-09-24T10:10:28.311Z,51.97
2018-09-24T10:13:02.734Z,51.67
2018-09-24T10:15:37.696Z,53.10
2018-09-24T10:18:11.811Z,51.28
2018-09-24T10:20:45.887Z,49.24
2018-09-24T10:23:20.440Z,48.70
2018-09-24T10:25:54.588Z,49.64
2018-09-24T10:28:28.678Z,47.19
2018-09-24T10:31:02.953Z,45.38
2018-09-24T10:33:37.319Z,45.35
2018-09-24T10:36:11.547Z,46.06
2018-09-24T10:38:45.956Z,45.85
2018-09-24T10:41:20.165Z,44.88
2018-09-24T10:43:54.598Z,47.21
2018-09-24T10:46:28.784Z,46.36
2018-09-24T10:49:04.189Z,46.28
2018-09-24T10:51:38.359Z,42.76
2018-09-24T10:54:12.784Z,45.68
2018-09-24T10:56:46.879Z,41.43
2018-09-24T10:59:21.401Z,40.81
2018-09-24T11:01:55.557Z,39.13
2018-09-24T11:04:30.362Z,38.49
2018-09-24T11:07:04.331Z,40.11
2018-09-24T11:09:40.739Z,41.60
2018-09-24T11:12:15.699Z,40.15
2018-09-24T11:14:50.307Z,40.53
2018-09-24T11:17:24.386Z,40.87
2018-09-24T11:19:58.736Z,40.05
2018-09-24T11:22:32.731Z,41.28
2018-09-24T11:25:06.952Z,40.74
2018-09-24T11:27:41.073Z,39.75
2018-09-24T11:30:15.567Z,37.67
2018-09-24T11:32:49.781Z,39.99
2018-09-24T11:35:24.087Z,38.30
2018-09-24T11:37:58.084Z,36.48
2018-09-24T11:40:32.115Z,37.00
2018-09-24T11:43:06.121Z,34.55
2018-09-24T11:45:40.473Z,32.83
2018-09-24T11:48:14.454Z,33.89
2018-09-24T11:50:48.581Z,34.12
2018-09-24T11:53:22.648Z,30.95
2018-09-24T11:55:57.047Z,31.61
2018-09-24T11:58:31.088Z,32.83
2018-09-24T12:01:05.205Z,34.16
2018-09-24T12:03:48.087Z,33.33
2018-09-24T12:09:26.349Z,32.87
2018-09-24T12:12:00.501Z,30.27
2018-09-24T12:14:35.076Z,31.62
2018-09-24T12:17:09.334Z,31.11
2018-09-24T12:19:43.912Z,28.79
2018-09-24T12:22:17.920Z,28.91
2018-09-24T12:24:52.455Z,27.49
2018-09-24T12:27:26.456Z,28.57
2018-09-24T12:30:01.007Z,29.30
2018-09-24T12:32:35.931Z,28.86
2018-09-24T12:35:10.437Z,30.32
2018-09-24T12:37:44.469Z,31.13
2018-09-24T12:40:18.669Z,31.25
2018-09-24T12:42:52.879Z,29.93
2018-09-24T12:45:27.145Z,31.86
2018-09-24T12:48:01.267Z,31.14
2018-09-24T12:50:36.862Z,30.71
2018-09-24T12:53:10.889Z,30.93
2018-09-24T12:55:46.883Z,29.00
2018-09-24T12:58:21.617Z,29.63
2018-09-24T13:00:56.006Z,30.71
2018-09-24T13:03:30.388Z,31.07
2018-09-24T13:06:04.581Z,30.71
2018-09-24T13:08:38.776Z,29.88
2018-09-24T13:11:13.245Z,28.44
2018-09-24T13:13:47.447Z,29.97
2018-09-24T13:16:21.879Z,31.29
2018-09-24T13:18:55.856Z,32.98
2018-09-24T13:21:30.084Z,30.89
2018-09-24T13:24:04.970Z,29.15
2018-09-24T13:26:39.217Z,29.61
2018-09-24T13:29:13.365Z,34.16
2018-09-24T13:31:47.645Z,29.54
2018-09-24T13:34:21.790Z,30.91
2018-09-24T13:36:56.115Z,32.33
2018-09-24T13:39:30.415Z,31.78
2018-09-24T13:42:04.534Z,30.57
2018-09-24T13:44:38.819Z,31.14
2018-09-24T13:47:13.404Z,32.32
2018-09-24T13:49:47.487Z,31.30
2018-09-24T13:52:21.984Z,28.42
2018-09-24T13:54:57.002Z,30.49
2018-09-24T13:57:31.258Z,30.93
2018-09-24T14:00:05.754Z,29.41
2018-09-24T14:02:40.125Z,30.97
2018-09-24T14:05:14.265Z,30.67
2018-09-24T14:07:48.482Z,31.67
2018-09-24T14:10:22.690Z,30.58
2018-09-24T14:12:57.362Z,31.07
2018-09-24T14:15:31.515Z,31.00
2018-09-24T14:18:05.857Z,30.57
2018-09-24T14:20:40.175Z,31.90
2018-09-24T14:23:14.370Z,35.20
2018-09-24T14:25:48.508Z,33.17
2018-09-24T14:28:22.619Z,32.89
2018-09-24T14:30:56.802Z,33.38
2018-09-24T14:33:30.975Z,33.84
2018-09-24T14:36:05.343Z,32.14
2018-09-24T14:38:39.771Z,32.88
2018-09-24T14:41:13.951Z,34.29
2018-09-24T14:43:48.213Z,34.35
2018-09-24T14:46:24.074Z,34.65
2018-09-24T14:48:58.672Z,38.51
2018-09-24T14:51:32.757Z,37.19
2018-09-24T14:54:07.026Z,37.85
2018-09-24T14:56:41.088Z,39.69
2018-09-24T14:59:15.737Z,40.99
2018-09-24T15:01:49.809Z,41.31
2018-09-24T15:04:24.045Z,41.84
2018-09-24T15:06:58.249Z,41.40
2018-09-24T15:09:32.770Z,41.70
2018-09-24T15:12:06.748Z,41.52
2018-09-24T15:14:40.759Z,42.25
2018-09-24T15:17:14.700Z,43.09
2018-09-24T15:19:48.876Z,43.97
2018-09-24T15:22:22.859Z,44.80
2018-09-24T15:24:57.642Z,44.49
2018-09-24T15:27:31.779Z,43.42
2018-09-24T15:30:06.231Z,43.40
2018-09-24T15:32:40.623Z,44.07
2018-09-24T15:35:15.020Z,44.17
2018-09-24T15:37:48.954Z,45.36
2018-09-24T15:40:23.234Z,45.93
2018-09-24T15:42:57.474Z,46.08
2018-09-24T15:45:31.659Z,45.40
2018-09-24T15:48:05.656Z,45.04
2018-09-24T15:50:40.710Z,45.88
2018-09-24T15:53:14.737Z,45.96
2018-09-24T15:55:48.980Z,47.10
2018-09-24T15:58:23.125Z,47.25
2018-09-24T16:00:57.630Z,46.91
2018-09-24T16:03:31.793Z,47.16
2018-09-24T16:06:06.037Z,46.78
2018-09-24T16:08:40.245Z,46.46
2018-09-24T16:11:14.316Z,46.87
2018-09-24T16:13:48.339Z,47.21
2018-09-24T16:16:23.156Z,47.67
2018-09-24T16:18:57.294Z,47.88
2018-09-24T16:21:31.778Z,46.33
2018-09-24T16:24:06.242Z,46.79
2018-09-24T16:26:41.154Z,49.15
2018-09-24T16:29:15.171Z,47.93
2018-09-24T16:31:49.620Z,48.89
2018-09-24T16:34:23.923Z,48.37
2018-09-24T16:36:58.302Z,48.62
2018-09-24T16:39:32.421Z,49.35
2018-09-24T16:42:06.732Z,49.75
2018-09-24T16:44:40.722Z,49.93
2018-09-24T16:47:14.978Z,50.48
2018-09-24T16:49:49.120Z,50.41
2018-09-24T16:52:23.221Z,51.24
2018-09-24T16:54:57.278Z,50.91
2018-09-24T16:57:31.797Z,51.63
2018-09-24T17:00:05.902Z,51.56
2018-09-24T17:02:40.127Z,50.54
2018-09-24T17:05:14.453Z,49.67
2018-09-24T17:07:50.196Z,50.10
2018-09-24T17:10:24.369Z,50.05
2018-09-24T17:12:59.044Z,50.11
2018-09-24T17:15:33.092Z,50.40
2018-09-24T17:18:07.712Z,50.52
2018-09-24T17:20:41.905Z,51.08
2018-09-24T17:23:16.131Z,51.01
2018-09-24T17:25:50.325Z,51.08
2018-09-24T17:28:24.668Z,50.53
2018-09-24T17:30:58.768Z,51.12
2018-09-24T17:33:33.142Z,50.33
2018-09-24T17:36:07.266Z,50.40
2018-09-24T17:38:42.178Z,51.17
2018-09-24T17:41:16.206Z,50.72
2018-09-24T17:43:50.396Z,50.68
2018-09-24T17:46:24.604Z,50.63
2018-09-24T17:48:58.710Z,51.45
2018-09-24T17:51:32.803Z,50.26
2018-09-24T17:54:07.756Z,51.15
2018-09-24T17:56:43.491Z,51.31
2018-09-24T17:59:17.738Z,51.64
2018-09-24T18:01:51.836Z,51.66
2018-09-24T18:04:26.161Z,51.24
2018-09-24T18:07:00.480Z,51.17
2018-09-24T18:09:34.693Z,50.53
2018-09-24T18:12:09.510Z,50.91
2018-09-24T18:14:43.625Z,52.06
2018-09-24T18:17:17.784Z,52.18
2018-09-24T18:19:52.131Z,52.20
2018-09-24T18:22:26.588Z,52.72
2018-09-24T18:25:00.864Z,52.24
2018-09-24T18:27:36.110Z,52.33
2018-09-24T18:30:10.730Z,51.62
2018-09-24T18:32:44.870Z,51.17
2018-09-24T18:35:20.882Z,51.69
2018-09-24T18:37:55.134Z,52.45
2018-09-24T18:40:30.911Z,52.20
2018-09-24T18:43:07.499Z,52.25
2018-09-24T18:45:41.764Z,51.71
2018-09-24T18:48:15.867Z,52.97
2018-09-24T18:50:50.350Z,52.77
2018-09-24T18:53:24.411Z,52.63
2018-09-24T18:55:59.069Z,51.95
2018-09-24T18:58:33.236Z,51.60
2018-09-24T19:01:08.107Z,51.81
2018-09-24T19:03:42.116Z,51.94
2018-09-24T19:06:16.812Z,52.60
2018-09-24T19:08:51.323Z,51.76
2018-09-24T19:11:27.966Z,52.37
2018-09-24T19:13:59.967Z,52.61
2018-09-24T19:16:34.154Z,51.84
2018-09-24T19:19:08.334Z,51.69
2018-09-24T19:21:43.114Z,51.06
2018-09-24T19:24:17.692Z,50.55
2018-09-24T19:26:52.165Z,50.03
2018-09-24T19:29:26.411Z,50.87
2018-09-24T19:32:00.974Z,50.50
2018-09-24T19:34:35.651Z,51.45
2018-09-24T19:37:10.308Z,51.05
2018-09-24T19:39:44.512Z,51.31
2018-09-24T19:42:19.704Z,51.12
2018-09-24T19:44:53.945Z,51.96
2018-09-24T19:47:28.614Z,52.04
2018-09-24T19:50:02.743Z,51.08
2018-09-24T19:52:37.285Z,51.11
2018-09-24T19:55:11.626Z,51.07
2018-09-24T19:57:45.995Z,51.66
2018-09-24T20:00:20.010Z,51.36
2018-09-24T20:02:55.248Z,51.46
2018-09-24T20:05:29.227Z,51.28
2018-09-24T20:08:03.831Z,51.53
2018-09-24T20:10:37.920Z,51.87
2018-09-24T20:13:12.122Z,51.05
2018-09-24T20:15:47.257Z,51.38
2018-09-24T20:18:21.767Z,51.82
2018-09-24T20:20:56.020Z,52.07
2018-09-24T20:23:30.364Z,51.62
2018-09-24T20:26:04.699Z,51.36
2018-09-24T20:28:39.255Z,51.45
2018-09-24T20:31:13.542Z,51.80
2018-09-24T20:33:47.781Z,52.24
2018-09-24T20:36:21.954Z,52.32
2018-09-24T20:38:56.650Z,52.36
2018-09-24T20:41:30.877Z,51.79
2018-09-24T20:44:05.063Z,52.72
2018-09-24T20:46:39.252Z,51.56
2018-09-24T20:49:13.697Z,51.65
2018-09-24T20:51:47.973Z,52.43
2018-09-24T20:54:22.124Z,51.91
2018-09-24T20:56:56.214Z,53.33
2018-09-24T20:59:30.551Z,52.36
2018-09-24T21:02:04.684Z,53.58
2018-09-24T21:04:38.773Z,54.41
2018-09-24T21:07:12.916Z,54.22
2018-09-24T21:09:47.385Z,53.43
2018-09-24T21:12:21.508Z,54.46
2018-09-24T21:14:55.680Z,53.70
2018-09-24T21:17:30.102Z,53.60
2018-09-24T21:20:04.565Z,54.50
2018-09-24T21:22:38.503Z,54.38
2018-09-24T21:25:12.660Z,54.68
2018-09-24T21:27:46.715Z,54.71
2018-09-24T21:30:21.207Z,54.65
2018-09-24T21:32:55.209Z,54.34
2018-09-24T21:35:29.264Z,53.91
2018-09-24T21:38:03.242Z,54.05
2018-09-24T21:40:37.646Z,53.04
2018-09-24T21:43:11.573Z,54.53
2018-09-24T21:45:45.808Z,54.09
2018-09-24T21:48:19.946Z,54.83
2018-09-24T21:50:54.399Z,54.26
2018-09-24T21:53:28.542Z,55.48
2018-09-24T21:56:02.811Z,55.39
2018-09-24T21:58:36.782Z,56.03
2018-09-24T22:01:11.332Z,56.57
2018-09-24T22:03:45.480Z,56.10
2018-09-24T22:06:19.830Z,56.97
2018-09-24T22:08:53.970Z,56.24
2018-09-24T22:11:28.013Z,56.16
2018-09-24T22:14:01.926Z,56.43
2018-09-24T22:16:36.127Z,57.64
2018-09-24T22:19:10.241Z,57.54
2018-09-24T22:21:44.401Z,58.89
2018-09-24T22:24:18.339Z,58.76
2018-09-24T22:26:52.672Z,59.83
2018-09-24T22:29:26.794Z,59.27
2018-09-24T22:32:01.121Z,59.75
2018-09-24T22:34:35.290Z,58.64
2018-09-24T22:37:09.609Z,59.72
2018-09-24T22:39:43.721Z,60.17
2018-09-24T22:42:18.002Z,60.25
2018-09-24T22:44:52.089Z,61.08
2018-09-24T22:47:26.411Z,60.75
2018-09-24T22:50:00.551Z,61.43
2018-09-24T22:52:34.807Z,61.00
2018-09-24T22:55:08.899Z,61.61
2018-09-24T22:57:43.053Z,60.66
2018-09-24T23:00:17.030Z,60.67
2018-09-24T23:02:51.378Z,60.61
2018-09-24T23:05:25.441Z,58.99
2018-09-24T23:07:59.581Z,59.46
2018-09-24T23:10:33.761Z,59.86
2018-09-24T23:13:08.153Z,59.45
2018-09-24T23:15:42.229Z,58.30
2018-09-24T23:18:16.389Z,57.49
2018-09-24T23:20:50.373Z,58.29
2018-09-24T23:23:24.711Z,57.55
2018-09-24T23:25:58.837Z,57.78
2018-09-24T23:28:33.246Z,57.91
2018-09-24T23:31:07.299Z,58.33
2018-09-24T23:33:41.402Z,58.03
2018-09-24T23:36:15.338Z,58.74
2018-09-24T23:38:49.790Z,58.29
2018-09-24T23:41:23.729Z,57.80
2018-09-24T23:43:58.039Z,57.81
2018-09-24T23:46:31.971Z,57.63
2018-09-24T23:49:06.160Z,58.64
2018-09-24T23:51:40.161Z,58.08
2018-09-24T23:54:14.560Z,62.09
2018-09-24T23:56:48.513Z,64.65
2018-09-24T23:59:22.910Z,63.31
